createdAt,value
2019-04-07T00:00:01.044Z,82.50
2019-04-07T00:02:31.473Z,89.77
2019-04-07T00:05:10.107Z,86.33
2019-04-07T00:07:29.717Z,82.67
2019-04-07T00:09:58.054Z,85.10
2019-04-07T00:12:29.261Z,84.00
2019-04-07T00:14:57.084Z,90.40
2019-04-07T00:17:26.286Z,89.87
2019-04-07T00:19:55.075Z,89.23
2019-04-07T00:22:23.951Z,87.60
2019-04-07T00:24:52.775Z,81.57
2019-04-07T00:27:22.349Z,85.03
2019-04-07T00:29:51.947Z,86.47
2019-04-07T00:32:21.335Z,78.23
2019-04-07T00:34:50.155Z,77.43
2019-04-07T00:37:20.679Z,86.00
2019-04-07T00:39:50.251Z,82.53
2019-04-07T00:42:19.383Z,77.47
2019-04-07T00:44:48.160Z,83.27
2019-04-07T00:47:16.983Z,86.63
2019-04-07T00:49:45.766Z,79.37
2019-04-07T00:52:15.703Z,78.13
2019-04-07T00:54:44.702Z,80.03
2019-04-07T00:57:14.218Z,80.80
2019-04-07T00:59:42.796Z,73.90
2019-04-07T01:02:13.148Z,73.73
2019-04-07T01:04:43.004Z,80.70
2019-04-07T01:07:12.256Z,86.60
2019-04-07T01:09:43.197Z,75.10
2019-04-07T01:12:12.970Z,80.17
2019-04-07T01:14:43.298Z,74.83
2019-04-07T01:17:11.755Z,70.17
2019-04-07T01:19:40.743Z,72.17
2019-04-07T01:22:09.960Z,75.33
2019-04-07T01:24:38.405Z,72.40
2019-04-07T01:27:08.195Z,72.83
2019-04-07T01:29:36.451Z,73.57
2019-04-07T01:32:06.009Z,69.80
2019-04-07T01:34:34.967Z,72.77
2019-04-07T01:37:03.512Z,74.13
2019-04-07T01:39:32.236Z,71.73
2019-04-07T01:42:07.120Z,72.43
2019-04-07T01:44:45.136Z,68.43
2019-04-07T01:47:23.054Z,70.10
2019-04-07T01:49:56.608Z,72.50
2019-04-07T01:52:33.731Z,74.13
2019-04-07T01:55:08.044Z,69.87
2019-04-07T01:58:46.044Z,71.07
2019-04-07T02:01:20.864Z,61.23
2019-04-07T02:03:59.816Z,73.60
2019-04-07T02:06:35.172Z,66.57
2019-04-07T02:09:17.202Z,63.47
2019-04-07T02:12:22.313Z,72.27
2019-04-07T02:15:02.331Z,70.33
2019-04-07T02:17:35.193Z,74.80
2019-04-07T02:20:10.329Z,69.50
2019-04-07T02:22:44.436Z,69.17
2019-04-07T02:25:25.106Z,68.47
2019-04-07T02:28:01.072Z,71.70
2019-04-07T02:32:39.326Z,64.40
2019-04-07T02:35:14.205Z,71.20
2019-04-07T02:37:50.286Z,78.43
2019-04-07T02:40:25.215Z,66.67
2019-04-07T02:43:01.880Z,68.97
2019-04-07T02:45:34.618Z,65.87
2019-04-07T02:48:14.462Z,63.73
2019-04-07T02:50:54.961Z,74.70
2019-04-07T02:53:34.899Z,66.90
2019-04-07T02:56:13.362Z,81.10
2019-04-07T02:58:48.373Z,71.53
2019-04-07T03:01:26.206Z,64.83
2019-04-07T03:05:05.323Z,68.63
2019-04-07T03:07:39.873Z,66.60
2019-04-07T03:10:15.934Z,66.97
2019-04-07T03:12:53.120Z,71.00
2019-04-07T03:15:32.745Z,66.47
2019-04-07T03:18:07.037Z,71.83
2019-04-07T03:20:48.180Z,69.40
2019-04-07T03:23:22.816Z,82.33
2019-04-07T03:25:58.030Z,80.37
2019-04-07T03:28:42.289Z,72.33
2019-04-07T03:31:21.289Z,80.67
2019-04-07T03:33:52.301Z,76.13
2019-04-07T03:36:30.408Z,84.00
2019-04-07T03:39:03.441Z,77.57
2019-04-07T03:41:39.935Z,76.50
2019-04-07T03:44:14.351Z,72.73
2019-04-07T03:46:47.969Z,67.27
2019-04-07T03:49:25.468Z,70.97
2019-04-07T03:52:59.428Z,62.97
2019-04-07T03:55:36.439Z,65.73
2019-04-07T03:58:12.215Z,75.33
2019-04-07T04:00:55.111Z,77.87
2019-04-07T04:03:32.821Z,82.67
2019-04-07T04:06:08.998Z,78.87
2019-04-07T04:09:19.277Z,73.00
2019-04-07T04:11:52.287Z,77.80
2019-04-07T04:14:25.490Z,74.90
2019-04-07T04:16:56.468Z,70.77
2019-04-07T04:19:26.161Z,73.00
2019-04-07T04:21:54.390Z,71.63
2019-04-07T04:24:23.121Z,71.17
2019-04-07T04:26:53.646Z,70.57
2019-04-07T04:29:23.070Z,65.43
2019-04-07T04:31:50.634Z,75.20
2019-04-07T04:34:20.981Z,69.83
2019-04-07T04:36:50.236Z,69.67
2019-04-07T04:39:20.063Z,70.90
2019-04-07T04:41:47.445Z,64.57
2019-04-07T04:44:16.509Z,65.37
2019-04-07T04:46:45.423Z,60.47
2019-04-07T04:49:15.116Z,66.90
2019-04-07T04:51:44.386Z,66.63
2019-04-07T04:54:14.498Z,68.47
2019-04-07T04:56:43.464Z,67.00
2019-04-07T04:59:12.798Z,60.33
2019-04-07T05:01:42.246Z,71.37
2019-04-07T05:04:11.499Z,58.17
2019-04-07T05:06:41.296Z,64.23
2019-04-07T05:09:09.493Z,65.27
2019-04-07T05:11:38.451Z,69.23
2019-04-07T05:14:08.967Z,66.60
2019-04-07T05:16:38.800Z,60.43
2019-04-07T05:19:07.432Z,64.70
2019-04-07T05:21:36.363Z,63.20
2019-04-07T05:24:06.885Z,65.33
2019-04-07T05:26:35.679Z,66.43
2019-04-07T05:29:04.752Z,57.97
2019-04-07T05:31:34.770Z,64.43
2019-04-07T05:34:03.831Z,62.27
2019-04-07T05:36:32.920Z,61.50
2019-04-07T05:39:03.605Z,60.20
2019-04-07T05:41:33.732Z,56.53
2019-04-07T05:44:03.516Z,61.67
2019-04-07T05:46:32.342Z,62.67
2019-04-07T05:49:01.100Z,56.70
2019-04-07T05:51:31.287Z,61.07
2019-04-07T05:54:00.424Z,60.60
2019-04-07T05:56:29.470Z,54.07
2019-04-07T05:58:58.139Z,56.70
2019-04-07T06:01:26.932Z,55.73
2019-04-07T06:03:56.593Z,53.23
2019-04-07T06:06:25.795Z,56.30
2019-04-07T06:08:53.964Z,75.20
2019-04-07T06:11:23.589Z,55.30
2019-04-07T06:13:52.927Z,65.30
2019-04-07T06:16:22.474Z,58.57
2019-04-07T06:18:51.122Z,56.23
2019-04-07T06:21:19.847Z,57.73
2019-04-07T06:23:48.758Z,50.30
2019-04-07T06:26:18.761Z,46.67
2019-04-07T06:28:51.572Z,43.73
2019-04-07T06:31:16.457Z,47.50
2019-04-07T06:33:45.829Z,42.27
2019-04-07T06:36:17.630Z,46.77
2019-04-07T06:38:50.319Z,48.73
2019-04-07T06:41:12.726Z,46.93
2019-04-07T06:43:41.539Z,46.13
2019-04-07T06:46:18.448Z,40.60
2019-04-07T06:48:52.935Z,47.17
2019-04-07T06:51:30.894Z,43.33
2019-04-07T06:54:02.153Z,43.60
2019-04-07T06:56:37.005Z,40.70
2019-04-07T06:59:15.303Z,36.27
2019-04-07T07:01:50.212Z,37.87
2019-04-07T07:05:22.637Z,41.70
2019-04-07T07:07:57.563Z,45.73
2019-04-07T07:10:35.633Z,40.73
2019-04-07T07:13:11.048Z,39.60
2019-04-07T07:15:41.164Z,44.77
2019-04-07T07:19:15.937Z,43.57
2019-04-07T07:22:18.640Z,43.77
2019-04-07T07:24:47.419Z,43.63
2019-04-07T07:27:16.354Z,44.37
2019-04-07T07:29:47.478Z,44.87
2019-04-07T07:32:14.814Z,40.93
2019-04-07T07:34:44.657Z,39.40
2019-04-07T07:37:14.919Z,40.90
2019-04-07T07:39:45.108Z,38.63
2019-04-07T07:42:14.730Z,43.33
2019-04-07T07:44:44.282Z,41.97
2019-04-07T07:47:15.101Z,45.73
2019-04-07T07:49:44.284Z,46.50
2019-04-07T07:52:17.136Z,49.03
2019-04-07T07:54:46.122Z,47.97
2019-04-07T07:57:14.420Z,46.03
2019-04-07T07:59:43.219Z,44.10
2019-04-07T08:02:11.888Z,41.17
2019-04-07T08:04:40.431Z,41.93
2019-04-07T08:07:13.423Z,41.77
2019-04-07T08:09:39.436Z,41.33
2019-04-07T08:12:10.307Z,42.77
2019-04-07T08:14:38.748Z,42.60
2019-04-07T08:17:09.399Z,40.77
2019-04-07T08:19:40.683Z,43.93
2019-04-07T08:22:07.698Z,45.57
2019-04-07T08:24:37.258Z,40.73
2019-04-07T08:27:08.804Z,44.60
2019-04-07T08:29:37.506Z,51.23
2019-04-07T08:32:06.590Z,50.67
2019-04-07T08:34:34.923Z,50.43
2019-04-07T08:37:05.950Z,51.23
2019-04-07T08:39:35.431Z,43.77
2019-04-07T08:42:07.678Z,44.63
2019-04-07T08:44:32.003Z,45.77
2019-04-07T08:47:01.371Z,48.30
2019-04-07T08:49:32.355Z,44.83
2019-04-07T08:52:03.224Z,45.10
2019-04-07T08:54:28.653Z,42.87
2019-04-07T08:56:58.281Z,46.47
2019-04-07T08:59:27.040Z,42.23
2019-04-07T09:01:55.845Z,43.13
2019-04-07T09:04:25.216Z,44.07
2019-04-07T09:06:53.761Z,45.43
2019-04-07T09:09:32.568Z,51.13
2019-04-07T09:11:54.985Z,42.67
2019-04-07T09:14:20.286Z,52.50
2019-04-07T09:16:56.203Z,45.10
2019-04-07T09:19:45.746Z,40.53
2019-04-07T09:22:22.949Z,44.07
2019-04-07T09:25:52.924Z,45.07
2019-04-07T09:28:31.856Z,46.37
2019-04-07T09:31:11.965Z,39.27
2019-04-07T09:34:20.638Z,38.63
2019-04-07T09:36:56.365Z,41.47
2019-04-07T09:39:34.538Z,39.83
2019-04-07T09:42:35.993Z,42.53
2019-04-07T09:45:26.503Z,38.63
2019-04-07T09:48:04.353Z,43.47
2019-04-07T09:50:38.639Z,42.17
2019-04-07T09:53:17.962Z,34.70
2019-04-07T09:56:23.966Z,37.53
2019-04-07T09:59:55.660Z,36.57
2019-04-07T10:02:34.146Z,39.40
2019-04-07T10:05:02.768Z,52.37
2019-04-07T10:07:41.684Z,38.93
2019-04-07T10:10:14.772Z,33.37
2019-04-07T10:12:51.137Z,35.63
2019-04-07T10:17:28.919Z,34.27
2019-04-07T10:20:04.349Z,35.83
2019-04-07T10:23:40.275Z,39.20
2019-04-07T10:26:16.694Z,34.97
2019-04-07T10:28:51.672Z,31.97
2019-04-07T10:31:23.577Z,32.20
2019-04-07T10:33:58.349Z,31.33
2019-04-07T10:36:37.421Z,30.37
2019-04-07T10:39:15.659Z,30.20
2019-04-07T10:43:58.979Z,28.20
2019-04-07T10:46:34.137Z,25.87
2019-04-07T10:49:11.371Z,25.63
2019-04-07T10:51:51.295Z,33.07
2019-04-07T10:54:25.203Z,25.17
2019-04-07T10:56:59.845Z,24.47
2019-04-07T10:59:36.825Z,17.90
2019-04-07T11:04:12.790Z,13.10
2019-04-07T11:08:51.900Z,20.47
2019-04-07T11:11:24.585Z,18.37
2019-04-07T11:13:58.807Z,18.40
2019-04-07T11:16:36.523Z,18.73
2019-04-07T11:21:14.350Z,20.10
2019-04-07T11:23:49.037Z,18.60
2019-04-07T11:26:23.527Z,15.43
2019-04-07T11:28:57.295Z,25.90
2019-04-07T11:31:35.203Z,20.53
2019-04-07T11:34:08.794Z,25.10
2019-04-07T11:36:44.398Z,20.50
2019-04-07T11:39:18.899Z,18.17
2019-04-07T11:41:52.827Z,15.43
2019-04-07T11:44:28.009Z,17.33
2019-04-07T11:47:02.218Z,17.93
2019-04-07T11:49:35.832Z,20.70
2019-04-07T11:52:21.047Z,28.50
2019-04-07T11:54:55.396Z,27.27
2019-04-07T11:57:45.216Z,21.10
2019-04-07T12:00:18.392Z,19.87
2019-04-07T12:02:53.612Z,18.47
2019-04-07T12:05:28.733Z,28.60
2019-04-07T12:09:06.530Z,20.03
2019-04-07T12:11:54.416Z,26.10
2019-04-07T12:14:28.788Z,18.33
2019-04-07T12:17:06.943Z,14.77
2019-04-07T12:19:39.830Z,16.53
2019-04-07T12:23:16.020Z,21.77
2019-04-07T12:25:51.439Z,19.07
2019-04-07T12:28:25.749Z,21.60
2019-04-07T12:31:03.500Z,25.90
2019-04-07T12:33:40.350Z,20.13
2019-04-07T12:36:14.597Z,24.57
2019-04-07T12:38:52.246Z,19.70
2019-04-07T12:41:31.793Z,17.13
2019-04-07T12:44:04.394Z,20.63
2019-04-07T12:46:44.267Z,19.47
2019-04-07T12:49:17.246Z,16.70
2019-04-07T12:51:55.970Z,19.73
2019-04-07T12:54:28.765Z,25.63
2019-04-07T12:59:06.885Z,24.27
2019-04-07T13:01:44.895Z,21.20
2019-04-07T13:04:15.533Z,19.07
2019-04-07T13:06:49.077Z,18.20
2019-04-07T13:09:24.593Z,22.83
2019-04-07T13:11:55.920Z,18.60
2019-04-07T13:14:40.026Z,18.43
2019-04-07T13:17:11.668Z,19.87
2019-04-07T13:19:58.395Z,25.77
2019-04-07T13:22:32.540Z,16.47
2019-04-07T13:25:04.731Z,21.90
2019-04-07T13:27:43.060Z,22.07
2019-04-07T13:30:24.150Z,24.13
2019-04-07T13:33:01.936Z,19.03
2019-04-07T13:35:35.679Z,23.80
2019-04-07T13:38:35.960Z,17.63
2019-04-07T13:41:10.457Z,27.70
2019-04-07T13:43:44.847Z,23.60
2019-04-07T13:46:30.647Z,20.90
2019-04-07T13:49:00.123Z,23.53
2019-04-07T13:51:32.960Z,31.30
2019-04-07T13:54:06.971Z,56.77
2019-04-07T13:56:48.135Z,52.67
2019-04-07T13:59:33.646Z,29.57
2019-04-07T14:02:06.383Z,28.07
2019-04-07T14:04:39.606Z,55.23
2019-04-07T14:09:20.168Z,33.93
2019-04-07T14:12:05.083Z,20.03
2019-04-07T14:14:26.788Z,20.83
2019-04-07T14:17:01.782Z,22.80
2019-04-07T14:19:38.681Z,18.80
2019-04-07T14:22:13.444Z,23.43
2019-04-07T14:24:47.211Z,19.90
2019-04-07T14:27:31.159Z,18.20
2019-04-07T14:30:06.220Z,23.30
2019-04-07T14:32:39.777Z,26.77
2019-04-07T14:35:29.386Z,22.07
2019-04-07T14:38:13.550Z,22.37
2019-04-07T14:40:48.846Z,20.13
2019-04-07T14:43:22.265Z,24.50
2019-04-07T14:45:55.235Z,25.43
2019-04-07T14:50:32.137Z,28.30
2019-04-07T14:57:25.518Z,27.87
2019-04-07T15:00:00.000Z,22.20
2019-04-07T15:02:29.096Z,20.17
2019-04-07T15:05:01.834Z,25.27
2019-04-07T15:07:40.855Z,20.77
2019-04-07T15:10:20.242Z,20.57
2019-04-07T15:12:52.414Z,18.93
2019-04-07T15:15:21.214Z,21.33
2019-04-07T15:17:49.631Z,15.90
2019-04-07T15:20:19.651Z,15.13
2019-04-07T15:22:49.375Z,14.47
2019-04-07T15:25:18.409Z,18.90
2019-04-07T15:27:47.719Z,19.40
2019-04-07T15:30:18.105Z,17.63
2019-04-07T15:32:50.370Z,20.33
2019-04-07T15:35:18.473Z,16.50
2019-04-07T15:37:51.556Z,16.90
2019-04-07T15:40:18.119Z,15.97
2019-04-07T15:42:50.602Z,20.53
2019-04-07T15:45:16.814Z,15.40
2019-04-07T15:47:47.163Z,17.27
2019-04-07T15:50:14.800Z,13.80
2019-04-07T15:52:45.943Z,19.13
2019-04-07T15:55:13.483Z,17.17
2019-04-07T15:57:42.786Z,17.13
2019-04-07T16:00:11.232Z,19.57
2019-04-07T16:02:42.129Z,23.33
2019-04-07T16:05:18.156Z,25.63
2019-04-07T16:07:46.962Z,22.60
2019-04-07T16:10:18.675Z,31.50
2019-04-07T16:12:52.239Z,21.47
2019-04-07T16:15:19.460Z,22.10
2019-04-07T16:17:48.047Z,23.83
2019-04-07T16:20:22.934Z,21.40
2019-04-07T16:22:49.932Z,18.37
2019-04-07T16:25:16.454Z,24.40
2019-04-07T16:27:45.749Z,27.03
2019-04-07T16:30:16.383Z,19.60
2019-04-07T16:32:45.585Z,18.50
2019-04-07T16:35:16.361Z,18.73
2019-04-07T16:37:43.788Z,24.40
2019-04-07T16:40:13.056Z,27.27
2019-04-07T16:42:54.542Z,24.23
2019-04-07T16:45:18.027Z,25.70
2019-04-07T16:47:47.727Z,24.77
2019-04-07T16:50:18.520Z,21.40
2019-04-07T16:52:44.791Z,19.57
2019-04-07T16:55:48.871Z,25.57
2019-04-07T16:58:14.662Z,26.13
2019-04-07T17:00:43.476Z,20.60
2019-04-07T17:03:13.616Z,29.73
2019-04-07T17:05:43.060Z,20.87
2019-04-07T17:08:12.883Z,19.33
2019-04-07T17:10:41.447Z,22.63
2019-04-07T17:13:19.631Z,19.50
2019-04-07T17:15:41.573Z,22.23
2019-04-07T17:18:10.498Z,24.13
2019-04-07T17:20:44.337Z,24.33
2019-04-07T17:23:13.347Z,27.67
2019-04-07T17:25:41.733Z,21.00
2019-04-07T17:28:13.561Z,20.87
2019-04-07T17:30:40.156Z,23.73
2019-04-07T17:33:10.128Z,24.63
2019-04-07T17:35:39.051Z,19.80
2019-04-07T17:38:10.683Z,29.00
2019-04-07T17:40:43.690Z,18.23
2019-04-07T17:43:25.657Z,27.80
2019-04-07T17:45:54.632Z,20.80
2019-04-07T17:48:36.978Z,21.57
2019-04-07T17:51:04.570Z,20.13
2019-04-07T17:53:37.246Z,19.43
2019-04-07T17:56:20.112Z,19.87
2019-04-07T17:58:54.362Z,19.57
2019-04-07T18:01:30.381Z,21.60
2019-04-07T18:04:13.969Z,19.10
2019-04-07T18:06:46.029Z,28.43
2019-04-07T18:09:35.100Z,22.93
2019-04-07T18:12:13.900Z,25.23
2019-04-07T18:14:42.678Z,23.50
2019-04-07T18:17:20.339Z,16.70
2019-04-07T18:19:54.744Z,24.23
2019-04-07T18:22:29.852Z,21.50
2019-04-07T18:25:04.105Z,21.67
2019-04-07T18:27:36.275Z,19.80
2019-04-07T18:30:10.584Z,32.20
2019-04-07T18:32:49.280Z,18.73
2019-04-07T18:35:28.436Z,20.97
2019-04-07T18:38:00.331Z,23.20
2019-04-07T18:40:52.731Z,18.83
2019-04-07T18:44:26.162Z,21.30
2019-04-07T18:47:01.450Z,23.77
2019-04-07T18:49:34.081Z,19.93
2019-04-07T18:52:08.273Z,37.33
2019-04-07T18:55:18.083Z,23.83
2019-04-07T18:57:53.410Z,31.77
2019-04-07T19:01:04.298Z,23.07
2019-04-07T19:05:38.094Z,23.90
2019-04-07T19:08:17.847Z,22.93
2019-04-07T19:10:51.578Z,31.80
2019-04-07T19:13:39.272Z,25.30
2019-04-07T19:16:19.090Z,22.80
2019-04-07T19:20:52.557Z,25.47
2019-04-07T19:23:28.581Z,25.17
2019-04-07T19:26:06.280Z,27.40
2019-04-07T19:28:42.262Z,20.33
2019-04-07T19:31:18.267Z,21.70
2019-04-07T19:33:50.470Z,24.50
2019-04-07T19:36:22.942Z,23.97
2019-04-07T19:38:58.547Z,24.17
2019-04-07T19:41:33.877Z,28.97
2019-04-07T19:44:13.729Z,22.63
2019-04-07T19:46:48.178Z,24.20
2019-04-07T19:49:54.358Z,25.80
2019-04-07T19:52:26.954Z,21.40
2019-04-07T19:55:00.452Z,19.03
2019-04-07T19:59:41.658Z,22.80
2019-04-07T20:02:12.892Z,22.87
2019-04-07T20:04:50.152Z,30.23
2019-04-07T20:07:51.330Z,20.43
2019-04-07T20:10:26.997Z,16.90
2019-04-07T20:14:03.608Z,19.67
2019-04-07T20:16:38.423Z,17.07
2019-04-07T20:19:13.181Z,18.10
2019-04-07T20:21:53.679Z,23.83
2019-04-07T20:24:23.872Z,20.97
2019-04-07T20:27:03.073Z,20.90
2019-04-07T20:29:46.543Z,24.97
2019-04-07T20:32:35.247Z,18.77
2019-04-07T20:35:11.511Z,19.70
2019-04-07T20:37:47.107Z,21.70
2019-04-07T20:40:18.094Z,23.53
2019-04-07T20:42:53.273Z,20.70
2019-04-07T20:45:31.925Z,21.47
2019-04-07T20:48:05.111Z,25.63
2019-04-07T20:50:43.638Z,28.40
2019-04-07T20:53:22.188Z,26.27
2019-04-07T20:55:50.740Z,20.77
2019-04-07T20:58:41.604Z,23.07
2019-04-07T21:01:04.514Z,20.43
2019-04-07T21:03:51.949Z,22.70
2019-04-07T21:06:59.871Z,24.37
2019-04-07T21:10:08.267Z,26.87
2019-04-07T21:12:37.882Z,19.03
2019-04-07T21:15:30.039Z,21.93
2019-04-07T21:18:05.347Z,19.73
2019-04-07T21:20:45.335Z,20.40
2019-04-07T21:23:19.520Z,20.40
2019-04-07T21:26:51.876Z,21.67
2019-04-07T21:29:25.958Z,18.17
2019-04-07T21:32:02.388Z,22.53
2019-04-07T21:34:36.494Z,21.63
2019-04-07T21:37:14.794Z,28.63
2019-04-07T21:39:51.632Z,23.57
2019-04-07T21:42:36.061Z,23.87
2019-04-07T21:45:14.788Z,18.43
2019-04-07T21:47:51.004Z,24.93
2019-04-07T21:50:26.062Z,22.73
2019-04-07T21:53:03.115Z,20.23
2019-04-07T21:55:46.040Z,21.17
2019-04-07T21:58:26.296Z,21.87
2019-04-07T22:00:58.462Z,20.43
2019-04-07T22:03:39.548Z,27.53
2019-04-07T22:06:14.468Z,20.13
2019-04-07T22:08:47.173Z,20.50
2019-04-07T22:11:15.599Z,22.30
2019-04-07T22:13:44.895Z,23.13
2019-04-07T22:16:14.273Z,21.93
2019-04-07T22:18:43.061Z,21.10
2019-04-07T22:21:11.761Z,19.73
2019-04-07T22:23:40.693Z,22.40
2019-04-07T22:26:16.209Z,20.43
2019-04-07T22:28:39.437Z,18.07
2019-04-07T22:31:08.900Z,20.20
2019-04-07T22:33:36.853Z,26.50
2019-04-07T22:36:05.900Z,24.53
2019-04-07T22:38:34.280Z,22.03
2019-04-07T22:41:06.966Z,24.07
2019-04-07T22:43:32.040Z,25.63
2019-04-07T22:46:08.544Z,24.83
2019-04-07T22:48:29.756Z,20.87
2019-04-07T22:50:58.826Z,23.83
2019-04-07T22:53:29.856Z,28.60
2019-04-07T22:55:56.997Z,19.23
2019-04-07T22:58:27.714Z,23.97
2019-04-07T23:00:55.482Z,25.77
2019-04-07T23:03:24.296Z,30.43
2019-04-07T23:05:53.375Z,29.70
2019-04-07T23:08:22.418Z,25.30
2019-04-07T23:10:52.072Z,25.57
2019-04-07T23:13:21.678Z,19.83
2019-04-07T23:15:50.336Z,27.47
2019-04-07T23:18:18.479Z,25.63
2019-04-07T23:20:47.934Z,28.17
2019-04-07T23:23:16.446Z,26.53
2019-04-07T23:25:46.690Z,21.23
2019-04-07T23:28:16.645Z,29.57
2019-04-07T23:30:45.088Z,21.97
2019-04-07T23:33:14.660Z,30.03
2019-04-07T23:35:42.898Z,29.33
2019-04-07T23:38:13.359Z,31.43
2019-04-07T23:40:41.962Z,26.20
2019-04-07T23:43:11.160Z,24.00
2019-04-07T23:45:39.929Z,26.60
2019-04-07T23:48:08.483Z,32.07
2019-04-07T23:50:37.407Z,26.93
2019-04-07T23:53:17.567Z,27.43
2019-04-07T23:55:46.431Z,30.30
2019-04-07T23:58:15.308Z,24.20
